createdAt,value
2022-10-15T00:01:47.303Z,15.01
2022-10-15T00:04:15.766Z,15.03
2022-10-15T00:06:44.251Z,15.00
2022-10-15T00:09:14.115Z,14.92
2022-10-15T00:11:42.547Z,14.91
2022-10-15T00:14:11.039Z,14.87
2022-10-15T00:16:39.439Z,14.84
2022-10-15T00:19:08.109Z,14.83
2022-10-15T00:21:37.182Z,14.89
2022-10-15T00:24:06.630Z,14.73
2022-10-15T00:26:36.511Z,14.43
2022-10-15T00:29:05.969Z,14.26
2022-10-15T00:31:34.560Z,14.28
2022-10-15T00:34:03.855Z,14.32
2022-10-15T00:36:34.440Z,14.40
2022-10-15T00:39:03.187Z,14.42
2022-10-15T00:41:34.325Z,14.37
2022-10-15T00:44:25.159Z,14.46
2022-10-15T00:46:56.110Z,14.45
2022-10-15T00:49:27.345Z,14.49
2022-10-15T00:52:01.065Z,14.42
2022-10-15T00:54:34.828Z,14.60
2022-10-15T00:57:03.391Z,14.66
2022-10-15T00:59:34.085Z,14.73
2022-10-15T01:02:03.291Z,14.81
2022-10-15T01:04:32.632Z,14.79
2022-10-15T01:07:01.090Z,14.66
2022-10-15T01:09:29.728Z,14.39
2022-10-15T01:11:58.817Z,14.31
2022-10-15T01:14:36.709Z,14.44
2022-10-15T01:17:09.508Z,14.69
2022-10-15T01:20:06.510Z,14.78
2022-10-15T01:22:47.390Z,14.98
2022-10-15T01:25:29.751Z,15.11
2022-10-15T01:28:06.413Z,15.19
2022-10-15T01:30:41.873Z,15.30
2022-10-15T01:33:27.697Z,15.40
2022-10-15T01:36:05.604Z,15.48
2022-10-15T01:38:44.974Z,15.40
2022-10-15T01:41:17.517Z,14.98
2022-10-15T01:43:49.756Z,15.06
2022-10-15T01:46:49.350Z,15.12
2022-10-15T01:49:27.146Z,15.15
2022-10-15T01:51:58.598Z,15.00
2022-10-15T01:54:29.204Z,15.00
2022-10-15T01:57:00.487Z,15.08
2022-10-15T01:59:32.742Z,15.18
2022-10-15T02:02:02.827Z,15.23
2022-10-15T02:04:32.765Z,15.19
2022-10-15T02:07:06.885Z,15.26
2022-10-15T02:09:44.944Z,15.37
2022-10-15T02:12:29.828Z,15.40
2022-10-15T02:15:08.173Z,15.25
2022-10-15T02:17:44.079Z,15.21
2022-10-15T02:20:18.148Z,15.00
2022-10-15T02:22:52.057Z,15.06
2022-10-15T02:25:23.713Z,15.23
2022-10-15T02:27:56.029Z,15.18
2022-10-15T02:30:25.658Z,15.23
2022-10-15T02:32:59.501Z,15.28
2022-10-15T02:35:29.549Z,15.24
2022-10-15T02:38:03.410Z,15.43
2022-10-15T02:40:37.109Z,15.43
2022-10-15T02:43:08.231Z,15.35
2022-10-15T02:45:37.018Z,15.41
2022-10-15T02:48:08.298Z,15.39
2022-10-15T02:50:37.273Z,15.44
2022-10-15T02:53:06.585Z,15.53
2022-10-15T02:55:36.049Z,15.43
2022-10-15T02:58:04.492Z,15.23
2022-10-15T03:00:33.101Z,15.30
2022-10-15T03:03:01.725Z,15.29
2022-10-15T03:05:31.863Z,15.36
2022-10-15T03:08:01.803Z,15.42
2022-10-15T03:10:31.468Z,15.29
2022-10-15T03:13:04.099Z,15.10
2022-10-15T03:15:35.181Z,15.11
2022-10-15T03:18:04.677Z,15.20
2022-10-15T03:20:34.512Z,15.15
2022-10-15T03:23:03.408Z,15.30
2022-10-15T03:25:33.430Z,15.35
2022-10-15T03:28:05.771Z,15.42
2022-10-15T03:30:40.711Z,15.35
2022-10-15T03:33:09.528Z,15.32
2022-10-15T03:35:40.111Z,15.23
2022-10-15T03:38:09.793Z,15.20
2022-10-15T03:40:38.300Z,15.27
2022-10-15T03:43:18.758Z,15.28
2022-10-15T03:45:47.742Z,15.28
2022-10-15T03:48:21.185Z,15.29
2022-10-15T03:50:51.462Z,15.46
2022-10-15T03:53:19.890Z,15.49
2022-10-15T03:55:49.008Z,15.56
2022-10-15T03:58:17.903Z,15.64
2022-10-15T04:00:54.431Z,15.65
2022-10-15T04:03:22.960Z,15.69
2022-10-15T04:05:54.688Z,15.76
2022-10-15T04:08:27.350Z,15.79
2022-10-15T04:10:56.120Z,15.77
2022-10-15T04:13:25.261Z,15.83
2022-10-15T04:15:54.260Z,15.84
2022-10-15T04:18:23.769Z,15.68
2022-10-15T04:21:00.031Z,15.87
2022-10-15T04:23:29.006Z,15.86
2022-10-15T04:26:16.192Z,15.83
2022-10-15T04:28:44.802Z,15.71
2022-10-15T04:31:13.790Z,15.69
2022-10-15T04:33:42.293Z,15.79
2022-10-15T04:36:14.689Z,15.84
2022-10-15T04:38:56.295Z,15.81
2022-10-15T04:41:35.388Z,15.68
2022-10-15T04:44:14.293Z,15.73
2022-10-15T04:46:47.949Z,15.63
2022-10-15T04:49:34.936Z,15.73
2022-10-15T04:52:11.415Z,15.70
2022-10-15T04:54:51.102Z,15.71
2022-10-15T04:57:20.239Z,15.84
2022-10-15T04:59:51.548Z,15.79
2022-10-15T05:03:07.099Z,15.77
2022-10-15T05:05:50.772Z,15.77
2022-10-15T05:08:20.662Z,15.82
2022-10-15T05:11:13.324Z,15.78
2022-10-15T05:13:41.985Z,15.90
2022-10-15T05:16:12.666Z,15.86
2022-10-15T05:18:41.441Z,15.81
2022-10-15T05:21:11.382Z,15.80
2022-10-15T05:23:44.108Z,15.81
2022-10-15T05:26:44.497Z,15.80
2022-10-15T05:29:13.460Z,15.88
2022-10-15T05:31:41.875Z,15.89
2022-10-15T05:34:20.304Z,15.75
2022-10-15T05:36:54.808Z,15.76
2022-10-15T05:39:24.828Z,15.74
2022-10-15T05:41:55.021Z,15.71
2022-10-15T05:44:33.423Z,15.79
2022-10-15T05:47:02.090Z,15.78
2022-10-15T05:49:31.022Z,15.84
2022-10-15T05:52:20.115Z,15.81
2022-10-15T05:55:28.318Z,15.79
2022-10-15T05:57:57.744Z,15.74
2022-10-15T06:00:26.172Z,15.71
2022-10-15T06:05:28.247Z,15.80
2022-10-15T06:07:58.097Z,15.80
2022-10-15T06:10:29.357Z,15.65
2022-10-15T06:12:58.064Z,15.58
2022-10-15T06:15:26.482Z,15.59
2022-10-15T06:17:55.391Z,15.71
2022-10-15T06:20:23.990Z,15.64
2022-10-15T06:22:52.871Z,15.72
2022-10-15T06:25:21.358Z,15.77
2022-10-15T06:27:51.262Z,15.77
2022-10-15T06:30:19.795Z,15.89
2022-10-15T06:32:50.082Z,15.93
2022-10-15T06:35:19.878Z,15.91
2022-10-15T06:37:48.338Z,15.85
2022-10-15T06:40:17.219Z,15.88
2022-10-15T06:42:45.704Z,15.88
2022-10-15T06:45:18.141Z,15.94
2022-10-15T06:47:49.463Z,15.87
2022-10-15T06:50:18.063Z,15.85
2022-10-15T06:52:46.842Z,15.82
2022-10-15T06:55:15.550Z,15.74
2022-10-15T06:57:43.969Z,15.93
2022-10-15T07:00:17.661Z,15.97
2022-10-15T07:02:46.131Z,16.04
2022-10-15T07:05:14.816Z,16.09
2022-10-15T07:07:43.438Z,16.10
2022-10-15T07:10:13.458Z,16.20
2022-10-15T07:12:42.733Z,16.23
2022-10-15T07:15:11.434Z,16.33
2022-10-15T07:17:41.313Z,16.37
2022-10-15T07:20:10.192Z,16.37
2022-10-15T07:22:38.651Z,16.46
2022-10-15T07:25:07.475Z,16.48
2022-10-15T07:27:35.869Z,16.61
2022-10-15T07:30:04.899Z,16.61
2022-10-15T07:32:33.321Z,16.68
2022-10-15T07:35:03.137Z,16.85
2022-10-15T07:37:31.917Z,16.90
2022-10-15T07:40:00.460Z,16.95
2022-10-15T07:42:28.869Z,16.93
2022-10-15T07:44:57.387Z,16.90
2022-10-15T07:47:26.038Z,16.89
2022-10-15T07:49:54.661Z,16.82
2022-10-15T07:52:24.801Z,16.68
2022-10-15T07:54:53.629Z,16.56
2022-10-15T07:57:22.069Z,16.58
2022-10-15T07:59:51.781Z,16.62
2022-10-15T08:02:21.178Z,16.77
2022-10-15T08:04:49.838Z,16.90
2022-10-15T08:07:18.325Z,16.89
2022-10-15T08:09:48.153Z,16.91
2022-10-15T08:12:16.581Z,16.79
2022-10-15T08:14:45.074Z,16.73
2022-10-15T08:17:13.605Z,16.70
2022-10-15T08:19:42.039Z,16.78
2022-10-15T08:22:10.502Z,16.91
2022-10-15T08:24:38.888Z,16.97
2022-10-15T08:27:08.745Z,17.14
2022-10-15T08:29:37.568Z,17.06
2022-10-15T08:32:06.179Z,17.08
2022-10-15T08:34:34.841Z,17.20
2022-10-15T08:37:04.280Z,17.20
2022-10-15T08:39:32.834Z,16.93
2022-10-15T08:42:04.185Z,16.88
2022-10-15T08:44:43.855Z,16.91
2022-10-15T08:47:25.808Z,16.93
2022-10-15T08:49:56.688Z,16.95
2022-10-15T08:52:32.225Z,17.11
2022-10-15T08:55:02.522Z,17.12
2022-10-15T08:57:42.618Z,17.16
2022-10-15T09:00:19.483Z,17.39
2022-10-15T09:02:59.591Z,17.54
2022-10-15T09:05:35.971Z,17.40
2022-10-15T09:08:13.983Z,17.73
2022-10-15T09:10:48.357Z,17.79
2022-10-15T09:13:23.385Z,17.99
2022-10-15T09:15:57.349Z,18.22
2022-10-15T09:18:28.896Z,18.40
2022-10-15T09:20:58.762Z,18.58
2022-10-15T09:23:30.082Z,18.69
2022-10-15T09:26:05.078Z,18.79
2022-10-15T09:28:42.266Z,18.45
2022-10-15T09:31:17.349Z,18.42
2022-10-15T09:33:51.915Z,18.57
2022-10-15T09:36:36.708Z,18.79
2022-10-15T09:39:20.881Z,18.97
2022-10-15T09:42:02.452Z,18.32
2022-10-15T09:44:39.158Z,18.71
2022-10-15T09:47:19.578Z,18.64
2022-10-15T09:49:49.433Z,18.60
2022-10-15T09:52:27.282Z,18.88
2022-10-15T09:55:09.462Z,18.90
2022-10-15T09:57:41.355Z,19.15
2022-10-15T10:00:13.809Z,19.25
2022-10-15T10:02:44.202Z,19.54
2022-10-15T10:05:30.374Z,19.98
2022-10-15T10:08:10.663Z,20.15
2022-10-15T10:10:41.842Z,20.38
2022-10-15T10:13:25.529Z,20.41
2022-10-15T10:15:58.482Z,20.45
2022-10-15T10:18:31.504Z,20.36
2022-10-15T10:21:01.811Z,20.28
2022-10-15T10:23:35.833Z,20.24
2022-10-15T10:26:06.962Z,20.09
2022-10-15T10:28:40.623Z,20.00
2022-10-15T10:31:13.266Z,20.09
2022-10-15T10:33:48.949Z,20.08
2022-10-15T10:36:25.665Z,20.23
2022-10-15T10:39:02.008Z,20.21
2022-10-15T10:41:52.078Z,20.36
2022-10-15T10:44:23.471Z,20.60
2022-10-15T10:47:19.569Z,20.69
2022-10-15T10:49:51.620Z,20.71
2022-10-15T10:52:25.692Z,20.69
2022-10-15T10:55:05.909Z,20.90
2022-10-15T10:57:42.797Z,21.13
2022-10-15T11:00:19.224Z,21.32
2022-10-15T11:02:50.388Z,21.60
2022-10-15T11:05:31.856Z,21.43
2022-10-15T11:08:11.954Z,21.69
2022-10-15T11:10:48.812Z,21.98
2022-10-15T11:13:37.186Z,22.06
2022-10-15T11:16:12.933Z,21.62
2022-10-15T11:18:57.350Z,22.02
2022-10-15T11:21:42.992Z,22.39
2022-10-15T11:24:17.131Z,22.78
2022-10-15T11:27:10.749Z,23.21
2022-10-15T11:29:53.229Z,22.30
2022-10-15T11:32:54.359Z,22.28
2022-10-15T11:35:54.221Z,22.76
2022-10-15T11:38:35.351Z,23.08
2022-10-15T11:41:21.666Z,23.26
2022-10-15T11:44:02.825Z,23.55
2022-10-15T11:46:38.782Z,23.61
2022-10-15T11:49:21.657Z,22.82
2022-10-15T11:52:04.034Z,22.99
2022-10-15T11:54:38.480Z,23.10
2022-10-15T11:57:12.725Z,23.31
2022-10-15T11:59:49.924Z,23.12
2022-10-15T12:02:24.472Z,23.06
2022-10-15T12:04:56.962Z,22.98
2022-10-15T12:07:29.734Z,22.31
2022-10-15T12:10:11.154Z,22.16
2022-10-15T12:12:46.467Z,22.18
2022-10-15T12:15:28.773Z,22.38
2022-10-15T12:18:03.312Z,22.28
2022-10-15T12:20:32.433Z,21.42
2022-10-15T12:23:02.306Z,21.47
2022-10-15T12:25:48.628Z,22.00
2022-10-15T12:28:22.985Z,21.44
2022-10-15T12:31:02.880Z,21.07
2022-10-15T12:33:35.947Z,21.31
2022-10-15T12:36:10.067Z,21.46
2022-10-15T12:38:41.400Z,21.74
2022-10-15T12:41:14.531Z,21.96
2022-10-15T12:43:46.176Z,22.28
2022-10-15T12:46:15.757Z,22.19
2022-10-15T12:48:46.378Z,22.41
2022-10-15T12:51:38.562Z,22.38
2022-10-15T12:54:39.913Z,23.11
2022-10-15T12:57:56.069Z,22.33
2022-10-15T13:00:36.416Z,23.14
2022-10-15T13:03:22.286Z,24.08
2022-10-15T13:05:53.944Z,24.61
2022-10-15T13:08:35.563Z,23.63
2022-10-15T13:11:04.138Z,23.23
2022-10-15T13:13:36.500Z,23.20
2022-10-15T13:16:10.801Z,22.47
2022-10-15T13:18:40.419Z,22.72
2022-10-15T13:21:11.391Z,23.31
2022-10-15T13:23:47.073Z,23.55
2022-10-15T13:26:20.678Z,23.56
2022-10-15T13:28:52.997Z,24.16
2022-10-15T13:31:29.067Z,24.33
2022-10-15T13:34:04.198Z,24.40
2022-10-15T13:36:34.885Z,24.44
2022-10-15T13:39:07.255Z,24.39
2022-10-15T13:41:38.488Z,24.49
2022-10-15T13:44:08.385Z,24.71
2022-10-15T13:46:44.781Z,24.41
2022-10-15T13:49:14.668Z,24.51
2022-10-15T13:51:45.120Z,24.34
2022-10-15T13:54:17.900Z,24.08
2022-10-15T13:56:53.527Z,23.98
2022-10-15T13:59:24.378Z,24.11
2022-10-15T14:01:55.930Z,23.97
2022-10-15T14:04:25.325Z,24.28
2022-10-15T14:09:35.152Z,24.45
2022-10-15T14:12:06.156Z,24.32
2022-10-15T14:14:37.605Z,24.16
2022-10-15T14:17:09.037Z,24.10
2022-10-15T14:19:39.903Z,24.15
2022-10-15T14:22:08.786Z,24.19
2022-10-15T14:24:40.349Z,24.09
2022-10-15T14:27:15.624Z,23.79
2022-10-15T14:29:48.044Z,23.58
2022-10-15T14:32:25.449Z,23.61
2022-10-15T14:34:55.504Z,23.34
2022-10-15T14:37:32.744Z,22.90
2022-10-15T14:40:15.505Z,22.80
2022-10-15T14:42:45.877Z,23.04
2022-10-15T14:45:24.687Z,22.70
2022-10-15T14:47:55.996Z,22.29
2022-10-15T14:50:27.612Z,22.26
2022-10-15T14:52:56.633Z,22.25
2022-10-15T14:55:33.503Z,22.07
2022-10-15T14:58:08.168Z,22.36
2022-10-15T15:00:43.564Z,22.75
2022-10-15T15:03:16.622Z,22.71
2022-10-15T15:05:47.785Z,22.88
2022-10-15T15:08:16.505Z,23.13
2022-10-15T15:10:46.212Z,23.19
2022-10-15T15:13:21.097Z,23.16
2022-10-15T15:15:51.215Z,23.17
2022-10-15T15:18:19.912Z,23.26
2022-10-15T15:20:49.948Z,23.42
2022-10-15T15:23:22.349Z,23.61
2022-10-15T15:25:52.432Z,23.69
2022-10-15T15:28:22.796Z,23.55
2022-10-15T15:31:00.178Z,23.72
2022-10-15T15:33:29.547Z,23.56
2022-10-15T15:36:02.976Z,23.33
2022-10-15T15:38:31.868Z,23.23
2022-10-15T15:41:05.571Z,23.08
2022-10-15T15:43:34.043Z,22.96
2022-10-15T15:46:03.936Z,22.52
2022-10-15T15:48:32.436Z,22.87
2022-10-15T15:51:04.177Z,22.56
2022-10-15T15:53:32.867Z,22.36
2022-10-15T15:56:01.328Z,22.31
2022-10-15T15:58:29.810Z,22.41
2022-10-15T16:00:58.240Z,22.36
2022-10-15T16:03:28.059Z,22.42
2022-10-15T16:05:56.912Z,22.44
2022-10-15T16:08:25.362Z,22.15
2022-10-15T16:10:53.782Z,22.09
2022-10-15T16:13:22.193Z,22.29
2022-10-15T16:15:50.657Z,22.36
2022-10-15T16:18:19.024Z,22.33
2022-10-15T16:20:49.102Z,22.15
2022-10-15T16:23:18.152Z,22.26
2022-10-15T16:25:46.621Z,22.28
2022-10-15T16:28:15.041Z,22.24
2022-10-15T16:30:43.506Z,22.10
2022-10-15T16:33:11.930Z,21.92
2022-10-15T16:35:40.337Z,21.74
2022-10-15T16:38:10.402Z,21.71
2022-10-15T16:40:40.117Z,21.65
2022-10-15T16:43:08.558Z,21.63
2022-10-15T16:45:37.009Z,21.61
2022-10-15T16:48:06.449Z,21.53
2022-10-15T16:50:34.846Z,21.59
2022-10-15T16:53:03.985Z,21.55
2022-10-15T16:55:33.900Z,21.46
2022-10-15T16:58:02.308Z,21.36
2022-10-15T17:00:31.183Z,21.37
2022-10-15T17:03:02.724Z,21.28
2022-10-15T17:05:32.737Z,21.23
2022-10-15T17:08:01.278Z,21.15
2022-10-15T17:10:29.666Z,21.13
2022-10-15T17:12:59.778Z,20.97
2022-10-15T17:15:28.228Z,20.80
2022-10-15T17:17:56.701Z,20.90
2022-10-15T17:20:25.175Z,20.89
2022-10-15T17:22:53.618Z,20.76
2022-10-15T17:25:22.315Z,20.80
2022-10-15T17:27:52.765Z,20.83
2022-10-15T17:30:22.622Z,20.85
2022-10-15T17:32:51.067Z,20.84
2022-10-15T17:35:19.888Z,20.83
2022-10-15T17:37:48.334Z,20.73
2022-10-15T17:40:16.938Z,20.64
2022-10-15T17:42:45.608Z,20.56
2022-10-15T17:45:14.004Z,20.58
2022-10-15T17:47:43.996Z,20.55
2022-10-15T17:50:14.478Z,20.50
2022-10-15T17:52:43.108Z,20.38
2022-10-15T17:55:11.537Z,20.35
2022-10-15T17:57:40.113Z,20.36
2022-10-15T18:00:11.544Z,20.20
2022-10-15T18:02:44.400Z,20.25
2022-10-15T18:05:12.843Z,20.29
2022-10-15T18:07:43.295Z,20.26
2022-10-15T18:10:12.752Z,20.20
2022-10-15T18:12:41.198Z,20.21
2022-10-15T18:15:10.341Z,20.11
2022-10-15T18:17:38.938Z,20.09
2022-10-15T18:20:09.622Z,20.07
2022-10-15T18:22:38.237Z,19.98
2022-10-15T18:25:07.449Z,20.01
2022-10-15T18:27:35.896Z,19.98
2022-10-15T18:30:04.841Z,19.96
2022-10-15T18:35:09.204Z,19.88
2022-10-15T18:37:37.698Z,19.85
2022-10-15T18:40:07.485Z,19.81
2022-10-15T18:42:36.185Z,19.84
2022-10-15T18:45:06.429Z,19.73
2022-10-15T18:47:34.853Z,19.70
2022-10-15T18:50:03.386Z,19.68
2022-10-15T18:52:39.699Z,19.59
2022-10-15T18:55:09.846Z,19.48
2022-10-15T18:57:43.780Z,19.34
2022-10-15T19:00:13.327Z,19.15
2022-10-15T19:02:41.804Z,19.03
2022-10-15T19:05:10.580Z,19.07
2022-10-15T19:07:40.471Z,19.02
2022-10-15T19:10:09.760Z,19.00
2022-10-15T19:12:38.761Z,19.02
2022-10-15T19:15:08.269Z,18.96
2022-10-15T19:17:36.668Z,18.96
2022-10-15T19:20:06.680Z,18.99
2022-10-15T19:22:35.146Z,18.86
2022-10-15T19:25:06.581Z,18.91
2022-10-15T19:27:35.304Z,18.85
2022-10-15T19:30:03.959Z,18.99
2022-10-15T19:32:32.377Z,19.01
2022-10-15T19:35:01.637Z,19.03
2022-10-15T19:37:30.108Z,19.07
2022-10-15T19:39:58.514Z,19.14
2022-10-15T19:42:30.846Z,19.13
2022-10-15T19:44:59.258Z,19.05
2022-10-15T19:47:27.930Z,18.86
2022-10-15T19:49:56.841Z,18.93
2022-10-15T19:52:25.298Z,18.86
2022-10-15T19:54:53.701Z,18.79
2022-10-15T19:57:22.712Z,18.80
2022-10-15T19:59:52.620Z,18.87
2022-10-15T20:02:21.034Z,18.88
2022-10-15T20:04:49.496Z,19.00
2022-10-15T20:07:17.926Z,19.03
2022-10-15T20:09:46.938Z,19.06
2022-10-15T20:12:15.471Z,18.97
2022-10-15T20:14:44.166Z,18.94
2022-10-15T20:17:14.077Z,18.90
2022-10-15T20:19:42.570Z,19.01
2022-10-15T20:22:11.055Z,19.03
2022-10-15T20:24:39.611Z,18.98
2022-10-15T20:27:08.077Z,18.97
2022-10-15T20:29:36.551Z,18.92
2022-10-15T20:32:11.022Z,19.00
2022-10-15T20:34:52.953Z,19.07
2022-10-15T20:37:21.547Z,19.08
2022-10-15T20:39:50.040Z,19.13
2022-10-15T20:42:19.123Z,19.16
2022-10-15T20:44:48.032Z,19.19
2022-10-15T20:47:17.604Z,19.24
2022-10-15T20:49:50.653Z,19.20
2022-10-15T20:52:21.881Z,19.23
2022-10-15T20:54:50.842Z,19.15
2022-10-15T20:57:19.553Z,19.12
2022-10-15T20:59:48.069Z,19.16
2022-10-15T21:02:16.507Z,19.13
2022-10-15T21:04:46.917Z,19.16
2022-10-15T21:07:15.493Z,19.09
2022-10-15T21:09:45.505Z,19.12
2022-10-15T21:12:20.218Z,19.19
2022-10-15T21:14:56.936Z,19.17
2022-10-15T21:17:25.744Z,19.07
2022-10-15T21:20:07.427Z,19.02
2022-10-15T21:22:39.622Z,19.09
2022-10-15T21:25:10.018Z,19.14
2022-10-15T21:27:39.126Z,19.15
2022-10-15T21:30:08.610Z,19.14
2022-10-15T21:32:37.123Z,19.12
2022-10-15T21:35:06.124Z,19.11
2022-10-15T21:37:35.594Z,19.12
2022-10-15T21:40:04.724Z,19.13
2022-10-15T21:42:34.897Z,19.15
2022-10-15T21:45:03.487Z,19.15
2022-10-15T21:47:33.417Z,19.17
2022-10-15T21:50:01.902Z,19.17
2022-10-15T21:52:30.646Z,19.15
2022-10-15T21:55:04.614Z,19.06
2022-10-15T21:57:34.896Z,19.19
2022-10-15T22:00:03.424Z,19.09
2022-10-15T22:02:32.556Z,18.97
2022-10-15T22:05:00.991Z,18.83
2022-10-15T22:07:29.469Z,18.78
2022-10-15T22:09:57.865Z,18.79
2022-10-15T22:12:26.541Z,18.82
2022-10-15T22:14:56.738Z,18.76
2022-10-15T22:17:25.226Z,18.75
2022-10-15T22:19:53.649Z,18.75
2022-10-15T22:22:22.247Z,18.81
2022-10-15T22:24:50.961Z,18.76
2022-10-15T22:27:19.375Z,18.74
2022-10-15T22:29:47.999Z,18.83
2022-10-15T22:32:17.843Z,18.78
2022-10-15T22:34:46.296Z,18.73
2022-10-15T22:37:14.788Z,18.68
2022-10-15T22:39:43.260Z,18.73
2022-10-15T22:42:11.894Z,18.69
2022-10-15T22:44:40.394Z,18.73
2022-10-15T22:47:09.656Z,18.77
2022-10-15T22:49:39.938Z,18.80
2022-10-15T22:52:08.670Z,18.75
2022-10-15T22:54:37.310Z,18.71
2022-10-15T22:57:05.798Z,18.71
2022-10-15T22:59:34.235Z,18.66
2022-10-15T23:02:04.294Z,18.69
2022-10-15T23:04:32.905Z,18.65
2022-10-15T23:07:02.840Z,18.67
2022-10-15T23:09:31.386Z,18.69
2022-10-15T23:11:59.786Z,18.69
2022-10-15T23:14:28.398Z,18.72
2022-10-15T23:16:58.817Z,18.74
2022-10-15T23:19:27.305Z,18.71
2022-10-15T23:21:57.059Z,18.72
2022-10-15T23:24:29.122Z,18.75
2022-10-15T23:26:58.244Z,18.72
2022-10-15T23:29:29.164Z,18.73
2022-10-15T23:31:57.676Z,18.74
2022-10-15T23:34:27.657Z,18.75
2022-10-15T23:36:56.152Z,18.79
2022-10-15T23:39:27.934Z,18.80
2022-10-15T23:41:56.545Z,18.79
2022-10-15T23:44:26.917Z,18.81
2022-10-15T23:46:55.455Z,18.79
2022-10-15T23:49:24.075Z,18.77
2022-10-15T23:51:52.930Z,18.78
2022-10-15T23:54:21.607Z,18.74
2022-10-15T23:56:51.467Z,18.71
2022-10-15T23:59:21.420Z,18.71
